createdAt,value
2022-08-31T00:00:21.584Z,100752.02
2022-08-31T00:03:39.803Z,100755.34
2022-08-31T00:06:17.839Z,100757.67
2022-08-31T00:09:14.929Z,100756.95
2022-08-31T00:14:28.879Z,100757.84
2022-08-31T00:17:13.230Z,100756.60
2022-08-31T00:19:59.222Z,100757.45
2022-08-31T00:22:51.667Z,100760.77
2022-08-31T00:25:37.045Z,100761.42
2022-08-31T00:28:30.872Z,100761.18
2022-08-31T00:31:12.266Z,100761.31
2022-08-31T00:34:11.931Z,100762.69
2022-08-31T00:37:01.556Z,100762.88
2022-08-31T00:39:31.611Z,100767.68
2022-08-31T00:42:13.086Z,100766.41
2022-08-31T00:44:43.097Z,100767.30
2022-08-31T00:47:29.076Z,100767.98
2022-08-31T00:50:16.876Z,100771.45
2022-08-31T00:53:02.203Z,100773.52
2022-08-31T00:55:57.561Z,100774.53
2022-08-31T00:58:34.191Z,100775.91
2022-08-31T01:01:30.694Z,100777.88
2022-08-31T01:04:22.265Z,100776.43
2022-08-31T01:06:59.034Z,100770.70
2022-08-31T01:09:40.009Z,100770.52
2022-08-31T01:13:02.545Z,100771.94
2022-08-31T01:15:39.670Z,100772.60
2022-08-31T01:18:18.097Z,100770.77
2022-08-31T01:21:32.167Z,100766.98
2022-08-31T01:24:09.585Z,100767.53
2022-08-31T01:26:53.749Z,100768.75
2022-08-31T01:29:41.458Z,100768.33
2022-08-31T01:32:21.098Z,100766.50
2022-08-31T01:34:58.697Z,100766.85
2022-08-31T01:37:31.897Z,100766.09
2022-08-31T01:40:17.015Z,100761.24
2022-08-31T01:42:56.197Z,100767.09
2022-08-31T01:45:59.217Z,100765.82
2022-08-31T01:48:48.599Z,100768.72
2022-08-31T01:51:25.956Z,100769.81
2022-08-31T01:53:57.979Z,100767.23
2022-08-31T01:56:45.854Z,100769.48
2022-08-31T01:59:34.707Z,100771.00
2022-08-31T02:02:09.730Z,100764.42
2022-08-31T02:07:50.213Z,100767.70
2022-08-31T02:10:23.508Z,100762.63
2022-08-31T02:12:59.053Z,100763.08
2022-08-31T02:16:02.720Z,100763.09
2022-08-31T02:18:37.571Z,100763.92
2022-08-31T02:21:27.171Z,100765.10
2022-08-31T02:24:02.200Z,100763.80
2022-08-31T02:26:32.834Z,100756.06
2022-08-31T02:29:26.302Z,100759.67
2022-08-31T02:32:19.985Z,100758.04
2022-08-31T02:35:16.719Z,100758.02
2022-08-31T02:38:00.156Z,100759.26
2022-08-31T02:40:43.831Z,100754.55
2022-08-31T02:43:24.894Z,100755.98
2022-08-31T02:46:24.803Z,100751.43
2022-08-31T02:49:08.809Z,100752.67
2022-08-31T02:51:50.819Z,100749.80
2022-08-31T02:54:28.813Z,100749.14
2022-08-31T02:57:32.861Z,100754.02
2022-08-31T03:00:10.403Z,100753.77
2022-08-31T03:03:01.696Z,100758.13
2022-08-31T03:05:41.177Z,100754.56
2022-08-31T03:08:27.571Z,100754.80
2022-08-31T03:11:09.372Z,100754.89
2022-08-31T03:13:46.041Z,100758.11
2022-08-31T03:16:15.926Z,100760.26
2022-08-31T03:19:21.315Z,100759.55
2022-08-31T03:22:04.318Z,100759.93
2022-08-31T03:24:53.289Z,100766.42
2022-08-31T03:27:31.294Z,100766.49
2022-08-31T03:30:04.989Z,100768.23
2022-08-31T03:35:37.725Z,100769.24
2022-08-31T03:38:20.335Z,100772.85
2022-08-31T03:41:01.475Z,100778.38
2022-08-31T03:43:40.094Z,100774.54
2022-08-31T03:46:18.446Z,100777.80
2022-08-31T03:49:01.219Z,100779.15
2022-08-31T03:51:41.783Z,100776.93
2022-08-31T03:54:20.741Z,100777.31
2022-08-31T03:57:01.609Z,100777.73
2022-08-31T04:00:01.090Z,100777.96
2022-08-31T04:02:38.039Z,100782.30
2022-08-31T04:05:28.087Z,100781.15
2022-08-31T04:08:14.764Z,100780.34
2022-08-31T04:10:53.558Z,100784.52
2022-08-31T04:13:21.174Z,100783.15
2022-08-31T04:16:01.569Z,100789.23
2022-08-31T04:18:49.973Z,100792.36
2022-08-31T04:21:24.508Z,100792.60
2022-08-31T04:24:04.119Z,100798.53
2022-08-31T04:26:54.435Z,100798.75
2022-08-31T04:29:34.161Z,100804.34
2022-08-31T04:32:46.277Z,100806.71
2022-08-31T04:35:29.618Z,100812.16
2022-08-31T04:38:55.404Z,100811.30
2022-08-31T04:41:41.809Z,100815.73
2022-08-31T04:44:11.110Z,100812.70
2022-08-31T04:46:41.772Z,100818.79
2022-08-31T04:49:30.184Z,100823.05
2022-08-31T04:52:16.175Z,100820.74
2022-08-31T04:54:53.881Z,100818.34
2022-08-31T04:57:35.767Z,100815.55
2022-08-31T05:00:12.958Z,100817.55
2022-08-31T05:03:08.265Z,100816.95
2022-08-31T05:06:00.517Z,100819.31
2022-08-31T05:09:05.188Z,100821.85
2022-08-31T05:11:34.729Z,100820.36
2022-08-31T05:14:18.477Z,100822.60
2022-08-31T05:17:20.133Z,100822.01
2022-08-31T05:20:06.426Z,100822.26
2022-08-31T05:22:40.647Z,100822.79
2022-08-31T05:25:33.493Z,100826.36
2022-08-31T05:31:05.211Z,100831.80
2022-08-31T05:33:57.512Z,100832.59
2022-08-31T05:36:38.957Z,100838.62
2022-08-31T05:39:26.903Z,100846.14
2022-08-31T05:45:06.524Z,100844.15
2022-08-31T05:47:56.515Z,100845.52
2022-08-31T05:50:50.383Z,100841.64
2022-08-31T05:53:47.306Z,100847.65
2022-08-31T05:56:37.406Z,100850.52
2022-08-31T05:59:13.335Z,100850.65
2022-08-31T06:02:05.664Z,100851.61
2022-08-31T06:04:54.698Z,100851.83
2022-08-31T06:07:32.753Z,100854.35
2022-08-31T06:10:14.193Z,100856.86
2022-08-31T06:13:20.670Z,100867.36
2022-08-31T06:16:29.898Z,100866.13
2022-08-31T06:19:11.855Z,100872.38
2022-08-31T06:22:28.564Z,100874.88
2022-08-31T06:25:24.178Z,100876.02
2022-08-31T06:28:15.099Z,100876.65
2022-08-31T06:31:03.461Z,100872.86
2022-08-31T06:33:45.089Z,100875.54
2022-08-31T06:36:49.915Z,100879.94
2022-08-31T06:39:45.247Z,100876.21
2022-08-31T06:42:26.979Z,100878.41
2022-08-31T06:45:22.149Z,100877.25
2022-08-31T06:48:01.478Z,100880.48
2022-08-31T06:50:43.068Z,100876.00
2022-08-31T06:53:34.085Z,100876.60
2022-08-31T06:56:37.521Z,100873.21
2022-08-31T06:59:40.021Z,100877.23
2022-08-31T07:02:27.530Z,100878.13
2022-08-31T07:05:11.517Z,100881.81
2022-08-31T07:07:56.401Z,100880.74
2022-08-31T07:10:30.009Z,100881.96
2022-08-31T07:13:02.053Z,100884.27
2022-08-31T07:15:44.481Z,100884.02
2022-08-31T07:18:16.128Z,100887.01
2022-08-31T07:21:22.653Z,100885.35
2022-08-31T07:24:07.831Z,100880.08
2022-08-31T07:27:06.590Z,100876.83
2022-08-31T07:29:44.457Z,100877.14
2022-08-31T07:32:18.368Z,100877.23
2022-08-31T07:35:01.297Z,100880.39
2022-08-31T07:38:06.479Z,100886.56
2022-08-31T07:41:11.672Z,100892.22
2022-08-31T07:44:00.692Z,100888.80
2022-08-31T07:46:48.423Z,100881.52
2022-08-31T07:49:37.328Z,100880.56
2022-08-31T07:52:23.628Z,100879.98
2022-08-31T07:55:14.194Z,100883.39
2022-08-31T07:57:54.791Z,100889.84
2022-08-31T08:00:45.595Z,100891.18
2022-08-31T08:03:43.349Z,100887.61
2022-08-31T08:06:18.905Z,100888.52
2022-08-31T08:09:23.924Z,100891.95
2022-08-31T08:12:10.029Z,100894.63
2022-08-31T08:15:03.276Z,100899.04
2022-08-31T08:17:38.470Z,100897.10
2022-08-31T08:20:37.386Z,100898.98
2022-08-31T08:23:14.894Z,100898.20
2022-08-31T08:25:52.155Z,100900.40
2022-08-31T08:28:39.252Z,100904.19
2022-08-31T08:31:22.805Z,100900.46
2022-08-31T08:34:19.808Z,100897.13
2022-08-31T08:37:08.142Z,100895.52
2022-08-31T08:40:02.286Z,100891.58
2022-08-31T08:42:40.154Z,100891.63
2022-08-31T08:45:27.883Z,100892.39
2022-08-31T08:48:16.099Z,100891.98
2022-08-31T08:51:03.743Z,100891.98
2022-08-31T08:53:52.137Z,100895.85
2022-08-31T08:56:34.469Z,100900.02
2022-08-31T08:59:30.059Z,100904.05
2022-08-31T09:02:20.511Z,100899.00
2022-08-31T09:05:13.062Z,100898.94
2022-08-31T09:08:18.103Z,100900.02
2022-08-31T09:11:18.862Z,100902.30
2022-08-31T09:14:19.195Z,100896.22
2022-08-31T09:17:34.858Z,100896.42
2022-08-31T09:20:18.109Z,100897.39
2022-08-31T09:23:08.012Z,100896.45
2022-08-31T09:26:07.538Z,100897.61
2022-08-31T09:28:54.690Z,100895.40
2022-08-31T09:32:16.540Z,100897.07
2022-08-31T09:35:06.493Z,100889.50
2022-08-31T09:37:46.035Z,100884.32
2022-08-31T09:40:38.164Z,100879.34
2022-08-31T09:43:35.242Z,100883.48
2022-08-31T09:46:29.832Z,100887.65
2022-08-31T09:49:20.285Z,100876.20
2022-08-31T09:52:01.172Z,100874.10
2022-08-31T09:55:10.285Z,100874.15
2022-08-31T09:58:35.312Z,100873.06
2022-08-31T10:01:49.694Z,100873.61
2022-08-31T10:04:29.966Z,100871.01
2022-08-31T10:07:11.518Z,100863.91
2022-08-31T10:10:39.278Z,100870.78
2022-08-31T10:14:08.694Z,100873.94
2022-08-31T10:16:55.748Z,100867.09
2022-08-31T10:19:34.458Z,100864.39
2022-08-31T10:22:29.852Z,100861.82
2022-08-31T10:25:31.487Z,100859.09
2022-08-31T10:28:31.832Z,100857.86
2022-08-31T10:31:48.346Z,100857.36
2022-08-31T10:35:06.025Z,100854.05
2022-08-31T10:38:14.800Z,100851.64
2022-08-31T10:41:07.103Z,100850.09
2022-08-31T10:44:31.872Z,100847.84
2022-08-31T10:47:24.926Z,100848.85
2022-08-31T10:50:18.032Z,100845.41
2022-08-31T10:53:13.174Z,100843.39
2022-08-31T10:56:02.027Z,100844.17
2022-08-31T10:58:46.397Z,100841.64
2022-08-31T11:02:17.044Z,100838.17
2022-08-31T11:05:52.847Z,100846.55
2022-08-31T11:09:17.363Z,100844.11
2022-08-31T11:12:14.544Z,100840.57
2022-08-31T11:15:08.519Z,100836.92
2022-08-31T11:18:05.631Z,100835.08
2022-08-31T11:21:11.084Z,100834.55
2022-08-31T11:24:34.911Z,100832.70
2022-08-31T11:27:27.087Z,100832.73
2022-08-31T11:30:02.954Z,100828.02
2022-08-31T11:32:45.558Z,100823.76
2022-08-31T11:36:11.277Z,100829.27
2022-08-31T11:39:15.808Z,100828.27
2022-08-31T11:41:50.918Z,100830.85
2022-08-31T11:45:14.048Z,100829.73
2022-08-31T11:47:46.888Z,100822.73
2022-08-31T11:50:42.107Z,100825.91
2022-08-31T11:53:32.023Z,100814.48
2022-08-31T11:56:15.244Z,100814.77
2022-08-31T11:59:34.032Z,100812.02
2022-08-31T12:02:45.375Z,100804.79
2022-08-31T12:06:05.220Z,100792.17
2022-08-31T12:09:02.485Z,100795.48
2022-08-31T12:11:49.713Z,100797.86
2022-08-31T12:14:49.848Z,100799.93
2022-08-31T12:17:51.949Z,100802.85
2022-08-31T12:21:03.249Z,100799.33
2022-08-31T12:24:05.888Z,100797.63
2022-08-31T12:26:52.436Z,100794.13
2022-08-31T12:29:32.617Z,100792.94
2022-08-31T12:32:46.480Z,100784.86
2022-08-31T12:36:13.843Z,100783.27
2022-08-31T12:39:35.209Z,100781.30
2022-08-31T12:50:49.788Z,100767.46
2022-08-31T12:54:08.977Z,100764.27
2022-08-31T13:00:40.971Z,100755.35
2022-08-31T13:03:59.592Z,100754.11
2022-08-31T13:06:42.923Z,100758.76
2022-08-31T13:09:54.042Z,100755.34
2022-08-31T13:12:39.285Z,100751.11
2022-08-31T13:15:42.453Z,100748.50
2022-08-31T13:18:51.405Z,100744.98
2022-08-31T13:21:35.463Z,100745.25
2022-08-31T13:25:07.882Z,100744.42
2022-08-31T13:28:00.853Z,100736.27
2022-08-31T13:31:12.531Z,100730.98
2022-08-31T13:34:28.295Z,100740.93
2022-08-31T13:37:34.277Z,100739.50
